Carbondale, Kansas
Current Conditions -  °F | °C
As of 9:53 PM on Monday 22 Dec 2014 (Local Time) from KFOE Reporting Station
Clear Clear  
Wind Chill: 31°   Ceiling: Unl
Heat Index: 38°   Visibility: 10mi
Dew Point: 33°   Wind: 9mph
Humidity: 83%   Direction: 240°WSW
Pressure: 29.55"   Gusts: NA
Location:  38.82°N, 95.69°W
Report Text: KFOE 230353Z AUTO 24008KT 10SM CLR 03/01 A2955 RMK AO2 SLP010 T00330006
Loading
Personal Weather Stations






























Interactive Weather Map New forecast layout! Learn more

10-Day Weather Forecast

Advertisements
Track Severe Weather on mobile